Terminal Aerodrome Forecast
Issued by NWS

Home | Current Version | Previous Version | Text Only | Print | Product List | Glossary On
Versions: 1 2 3 4 5 6 7 8 9 10 11 12 13 14
000
FTUS41 KPBZ 040520
TAFLBE
TAF
KLBE 040520Z 0406/0506 29008KT 6SM -RA BKN035
      TEMPO 0406/0408 3SM -TSRA BKN025CB
     FM040800 VRB05KT 5SM BR SKC
      TEMPO 0409/0413 1SM BR
     FM041600 29012KT P6SM SCT050
     FM042300 VRB05KT P6SM SKC
      AMD NOT SKED=

USA.gov is the U.S. government's official web portal to all federal, state and local government web resources and services.